createdAt,value
2017-08-05T00:01:50.575Z,23.70
2017-08-05T00:04:18.861Z,23.60
2017-08-05T00:06:47.117Z,23.60
2017-08-05T00:09:15.422Z,23.50
2017-08-05T00:11:43.706Z,23.60
2017-08-05T00:14:11.957Z,24.00
2017-08-05T00:16:41.022Z,24.90
2017-08-05T00:19:10.042Z,25.20
2017-08-05T00:21:38.333Z,25.20
2017-08-05T00:24:06.626Z,25.50
2017-08-05T00:26:35.670Z,26.00
2017-08-05T00:29:03.960Z,26.00
2017-08-05T00:31:33.039Z,26.40
2017-08-05T00:34:02.058Z,26.50
2017-08-05T00:36:30.350Z,26.50
2017-08-05T00:38:58.669Z,26.60
2017-08-05T00:41:26.956Z,26.70
2017-08-05T00:43:55.259Z,26.80
2017-08-05T00:46:24.700Z,27.00
2017-08-05T00:48:52.959Z,27.00
2017-08-05T00:51:21.239Z,27.00
2017-08-05T00:53:49.516Z,27.10
2017-08-05T00:56:18.573Z,27.20
2017-08-05T00:58:46.834Z,27.20
2017-08-05T01:01:15.139Z,27.30
2017-08-05T01:03:43.397Z,27.30
2017-08-05T01:06:12.438Z,27.40
2017-08-05T01:08:40.708Z,27.40
2017-08-05T01:11:08.957Z,27.40
2017-08-05T01:13:37.247Z,27.50
2017-08-05T01:16:06.293Z,27.60
2017-08-05T01:18:34.578Z,27.60
2017-08-05T01:21:03.621Z,27.60
2017-08-05T01:23:31.922Z,27.60
2017-08-05T01:26:00.759Z,27.70
2017-08-05T01:28:29.016Z,27.70
2017-08-05T01:30:57.277Z,27.70
2017-08-05T01:33:25.531Z,27.80
2017-08-05T01:35:53.811Z,27.80
2017-08-05T01:38:22.086Z,27.80
2017-08-05T01:40:51.112Z,27.90
2017-08-05T01:43:19.396Z,27.90
2017-08-05T01:45:49.627Z,27.90
2017-08-05T01:48:18.674Z,27.90
2017-08-05T01:50:46.967Z,27.90
2017-08-05T01:53:16.041Z,28.00
2017-08-05T01:55:45.061Z,28.00
2017-08-05T01:58:13.342Z,28.00
2017-08-05T02:00:41.657Z,28.00
2017-08-05T02:03:10.715Z,28.10
2017-08-05T02:05:38.961Z,28.10
2017-08-05T02:08:07.228Z,28.10
2017-08-05T02:10:35.468Z,28.10
2017-08-05T02:13:03.751Z,28.10
2017-08-05T02:15:32.021Z,28.20
2017-08-05T02:18:01.075Z,28.20
2017-08-05T02:20:29.359Z,28.20
2017-08-05T02:22:58.800Z,28.20
2017-08-05T02:25:27.058Z,28.20
2017-08-05T02:27:55.337Z,28.20
2017-08-05T02:30:23.597Z,28.30
2017-08-05T02:32:51.877Z,28.30
2017-08-05T02:35:20.154Z,28.30
2017-08-05T02:37:49.233Z,28.30
2017-08-05T02:40:18.286Z,28.30
2017-08-05T02:42:46.587Z,28.30
2017-08-05T02:45:14.869Z,28.40
2017-08-05T02:47:43.117Z,28.40
2017-08-05T02:50:11.365Z,28.40
2017-08-05T02:52:39.642Z,28.40
2017-08-05T02:55:07.930Z,28.40
2017-08-05T02:57:36.185Z,28.40
2017-08-05T03:00:04.487Z,28.40
2017-08-05T03:02:33.547Z,28.40
2017-08-05T03:05:01.847Z,28.40
2017-08-05T03:07:30.145Z,28.50
2017-08-05T03:09:58.428Z,28.50
2017-08-05T03:12:26.681Z,28.50
2017-08-05T03:14:54.953Z,28.50
2017-08-05T03:17:23.210Z,28.50
2017-08-05T03:19:51.462Z,28.60
2017-08-05T03:22:19.777Z,28.50
2017-08-05T03:24:48.036Z,28.60
2017-08-05T03:27:16.289Z,28.60
2017-08-05T03:29:44.919Z,28.00
2017-08-05T03:32:13.466Z,27.10
2017-08-05T03:34:41.773Z,26.30
2017-08-05T03:37:10.075Z,25.60
2017-08-05T03:39:38.323Z,25.00
2017-08-05T03:42:06.569Z,24.60
2017-08-05T03:44:34.840Z,24.40
2017-08-05T03:47:03.135Z,24.20
2017-08-05T03:49:31.423Z,23.90
2017-08-05T03:52:00.490Z,23.50
2017-08-05T03:54:29.548Z,23.40
2017-08-05T03:56:57.826Z,23.40
2017-08-05T03:59:27.230Z,23.30
2017-08-05T04:01:56.270Z,23.20
2017-08-05T04:04:24.526Z,23.20
2017-08-05T04:06:52.780Z,23.60
2017-08-05T04:09:21.030Z,24.10
2017-08-05T04:11:49.277Z,24.60
2017-08-05T04:14:17.584Z,25.00
2017-08-05T04:16:45.874Z,25.40
2017-08-05T04:19:14.116Z,25.70
2017-08-05T04:21:43.150Z,26.10
2017-08-05T04:24:11.438Z,26.10
2017-08-05T04:26:39.717Z,26.30
2017-08-05T04:29:08.782Z,26.50
2017-08-05T04:31:37.809Z,26.70
2017-08-05T04:34:06.079Z,26.60
2017-08-05T04:36:34.399Z,26.70
2017-08-05T04:39:02.459Z,26.80
2017-08-05T04:41:30.753Z,26.80
2017-08-05T04:43:59.015Z,26.90
2017-08-05T04:46:27.298Z,27.00
2017-08-05T04:48:55.582Z,27.00
2017-08-05T04:51:24.657Z,27.10
2017-08-05T04:53:53.673Z,27.20
2017-08-05T04:56:21.923Z,27.20
2017-08-05T04:58:50.228Z,27.20
2017-08-05T05:01:18.472Z,27.30
2017-08-05T05:03:46.759Z,27.30
2017-08-05T05:06:15.382Z,27.30
2017-08-05T05:08:43.715Z,27.40
2017-08-05T05:11:12.724Z,27.50
2017-08-05T05:13:40.992Z,27.50
2017-08-05T05:16:09.270Z,27.50
2017-08-05T05:18:37.541Z,27.60
2017-08-05T05:21:05.838Z,27.60
2017-08-05T05:23:34.122Z,27.60
2017-08-05T05:26:02.779Z,27.70
2017-08-05T05:28:31.070Z,27.70
2017-08-05T05:30:59.316Z,27.20
2017-08-05T05:33:27.632Z,26.30
2017-08-05T05:35:56.670Z,25.20
2017-08-05T05:38:24.943Z,25.20
2017-08-05T05:40:53.192Z,24.80
2017-08-05T05:43:21.805Z,24.40
2017-08-05T05:45:50.632Z,24.10
2017-08-05T05:48:18.889Z,24.10
2017-08-05T05:50:47.182Z,24.00
2017-08-05T05:53:16.192Z,23.80
2017-08-05T05:55:44.479Z,23.70
2017-08-05T05:58:12.778Z,23.80
2017-08-05T06:00:41.075Z,23.70
2017-08-05T06:03:09.341Z,23.60
2017-08-05T06:05:37.613Z,23.60
2017-08-05T06:08:05.894Z,23.60
2017-08-05T06:10:34.183Z,23.60
2017-08-05T06:13:03.247Z,23.50
2017-08-05T06:15:31.498Z,23.50
2017-08-05T06:17:59.826Z,23.50
2017-08-05T06:20:28.084Z,23.50
2017-08-05T06:22:56.333Z,23.50
2017-08-05T06:25:24.394Z,23.50
2017-08-05T06:27:52.718Z,23.50
2017-08-05T06:30:21.783Z,24.10
2017-08-05T06:32:50.032Z,24.10
2017-08-05T06:35:18.301Z,24.50
2017-08-05T06:37:46.583Z,24.80
2017-08-05T06:40:15.605Z,25.40
2017-08-05T06:42:43.929Z,25.40
2017-08-05T06:45:12.181Z,25.60
2017-08-05T06:47:41.192Z,25.90
2017-08-05T06:50:09.858Z,25.90
2017-08-05T06:52:38.138Z,26.00
2017-08-05T06:55:06.417Z,26.10
2017-08-05T06:57:34.676Z,26.20
2017-08-05T07:00:02.933Z,26.30
2017-08-05T07:02:31.219Z,26.40
2017-08-05T07:05:00.251Z,26.50
2017-08-05T07:07:28.492Z,26.50
2017-08-05T07:09:56.748Z,26.60
2017-08-05T07:12:25.025Z,26.70
2017-08-05T07:14:53.293Z,26.70
2017-08-05T07:17:21.582Z,26.70
2017-08-05T07:19:49.863Z,26.80
2017-08-05T07:22:18.919Z,26.90
2017-08-05T07:24:47.205Z,26.90
2017-08-05T07:27:15.525Z,26.90
2017-08-05T07:29:43.768Z,27.00
2017-08-05T07:32:12.027Z,27.00
2017-08-05T07:34:40.335Z,27.00
2017-08-05T07:37:09.407Z,27.10
2017-08-05T07:39:38.429Z,27.10
2017-08-05T07:42:06.722Z,27.20
2017-08-05T07:44:35.011Z,27.20
2017-08-05T07:47:04.059Z,27.20
2017-08-05T07:49:32.320Z,27.20
2017-08-05T07:52:00.578Z,27.30
2017-08-05T07:54:28.634Z,27.30
2017-08-05T07:56:56.945Z,27.30
2017-08-05T07:59:25.196Z,27.30
2017-08-05T08:01:53.450Z,27.40
2017-08-05T08:04:22.510Z,27.40
2017-08-05T08:06:50.807Z,27.40
2017-08-05T08:09:19.085Z,27.40
2017-08-05T08:11:47.345Z,27.50
2017-08-05T08:14:15.593Z,27.50
2017-08-05T08:16:43.889Z,27.50
2017-08-05T08:19:12.197Z,27.50
2017-08-05T08:21:40.492Z,27.60
2017-08-05T08:24:08.741Z,27.60
2017-08-05T08:26:37.030Z,27.60
2017-08-05T08:29:05.339Z,27.60
2017-08-05T08:31:33.599Z,27.60
2017-08-05T08:34:01.855Z,27.60
2017-08-05T08:36:30.104Z,27.70
2017-08-05T08:38:59.120Z,27.70
2017-08-05T08:41:27.402Z,27.70
2017-08-05T08:43:55.649Z,27.70
2017-08-05T08:46:23.938Z,27.70
2017-08-05T08:48:52.230Z,27.70
2017-08-05T08:51:20.536Z,27.80
2017-08-05T08:53:48.805Z,27.80
2017-08-05T08:56:17.073Z,27.80
2017-08-05T08:58:45.337Z,27.80
2017-08-05T09:01:13.595Z,27.80
2017-08-05T09:03:41.911Z,27.80
2017-08-05T09:06:10.161Z,27.80
2017-08-05T09:08:38.414Z,27.90
2017-08-05T09:11:06.716Z,27.90
2017-08-05T09:13:34.970Z,27.90
2017-08-05T09:16:03.251Z,27.90
2017-08-05T09:18:31.555Z,27.90
2017-08-05T09:20:59.839Z,27.90
2017-08-05T09:23:28.095Z,28.00
2017-08-05T09:25:56.398Z,28.00
2017-08-05T09:28:24.686Z,28.00
2017-08-05T09:30:53.763Z,28.00
2017-08-05T09:33:22.835Z,28.00
2017-08-05T09:35:51.878Z,28.00
2017-08-05T09:38:20.129Z,28.00
2017-08-05T09:40:48.418Z,28.00
2017-08-05T09:43:16.676Z,28.00
2017-08-05T09:45:44.926Z,28.10
2017-08-05T09:48:13.209Z,28.10
2017-08-05T09:50:42.230Z,28.10
2017-08-05T09:53:10.476Z,28.10
2017-08-05T09:55:38.787Z,28.10
2017-08-05T09:58:07.075Z,28.10
2017-08-05T10:00:36.088Z,28.10
2017-08-05T10:03:04.399Z,28.10
2017-08-05T10:05:33.422Z,28.10
2017-08-05T10:08:01.711Z,28.20
2017-08-05T10:10:29.993Z,28.20
2017-08-05T10:12:58.243Z,28.20
2017-08-05T10:15:26.491Z,28.20
2017-08-05T10:17:54.812Z,28.20
2017-08-05T10:20:23.099Z,28.20
2017-08-05T10:22:51.382Z,28.20
2017-08-05T10:25:19.635Z,28.20
2017-08-05T10:27:47.937Z,28.20
2017-08-05T10:30:16.226Z,28.20
2017-08-05T10:32:44.541Z,28.20
2017-08-05T10:35:13.600Z,28.20
2017-08-05T10:37:41.904Z,28.20
2017-08-05T10:40:10.214Z,28.20
2017-08-05T10:42:38.475Z,28.20
2017-08-05T10:45:07.525Z,28.30
2017-08-05T10:47:35.823Z,28.30
2017-08-05T10:50:04.082Z,28.30
2017-08-05T10:52:32.363Z,28.30
2017-08-05T10:55:01.438Z,28.30
2017-08-05T10:57:30.465Z,28.30
2017-08-05T10:59:58.709Z,28.30
2017-08-05T11:02:27.094Z,28.30
2017-08-05T11:04:55.383Z,28.30
2017-08-05T11:07:23.679Z,28.30
2017-08-05T11:09:51.970Z,28.30
2017-08-05T11:12:20.218Z,28.30
2017-08-05T11:14:48.517Z,28.30
2017-08-05T11:17:16.792Z,28.30
2017-08-05T11:19:45.837Z,28.30
2017-08-05T11:22:14.092Z,28.30
2017-08-05T11:24:42.398Z,28.30
2017-08-05T11:27:11.514Z,28.40
2017-08-05T11:29:39.769Z,28.30
2017-08-05T11:32:08.082Z,28.40
2017-08-05T11:34:36.371Z,28.40
2017-08-05T11:37:05.393Z,28.40
2017-08-05T11:39:33.695Z,28.30
2017-08-05T11:42:02.743Z,28.40
2017-08-05T11:44:30.992Z,28.40
2017-08-05T11:46:59.289Z,28.40
2017-08-05T11:49:28.346Z,28.40
2017-08-05T11:51:56.627Z,28.40
2017-08-05T11:54:25.699Z,28.40
2017-08-05T11:56:53.948Z,28.40
2017-08-05T11:59:22.196Z,28.50
2017-08-05T12:01:50.498Z,28.40
2017-08-05T12:04:19.564Z,28.40
2017-08-05T12:06:48.685Z,28.50
2017-08-05T12:09:16.979Z,28.40
2017-08-05T12:11:45.226Z,28.50
2017-08-05T12:14:13.507Z,28.50
2017-08-05T12:16:41.788Z,28.50
2017-08-05T12:19:10.801Z,28.50
2017-08-05T12:21:39.081Z,28.50
2017-08-05T12:24:07.377Z,28.50
2017-08-05T12:26:35.620Z,28.50
2017-08-05T12:29:03.900Z,28.50
2017-08-05T12:31:32.938Z,28.50
2017-08-05T12:34:01.222Z,28.50
2017-08-05T12:36:29.482Z,28.50
2017-08-05T12:38:57.753Z,28.50
2017-08-05T12:41:26.773Z,28.50
2017-08-05T12:43:55.012Z,28.50
2017-08-05T12:46:23.322Z,28.60
2017-08-05T12:48:51.614Z,28.50
2017-08-05T12:51:20.633Z,28.50
2017-08-05T12:53:48.932Z,28.50
2017-08-05T12:56:17.189Z,28.50
2017-08-05T12:58:45.438Z,28.50
2017-08-05T13:01:13.707Z,28.50
2017-08-05T13:03:41.954Z,28.60
2017-08-05T13:06:10.196Z,28.60
2017-08-05T13:08:38.470Z,28.60
2017-08-05T13:11:06.822Z,28.60
2017-08-05T13:13:35.101Z,28.60
2017-08-05T13:16:03.402Z,28.60
2017-08-05T13:18:32.431Z,28.60
2017-08-05T13:21:00.717Z,28.60
2017-08-05T13:23:28.986Z,28.60
2017-08-05T13:25:57.931Z,28.60
2017-08-05T13:28:26.174Z,28.60
2017-08-05T13:30:54.470Z,28.60
2017-08-05T13:33:22.750Z,28.60
2017-08-05T13:35:51.770Z,28.60
2017-08-05T13:38:20.038Z,28.60
2017-08-05T13:40:48.311Z,28.60
2017-08-05T13:43:16.589Z,28.60
2017-08-05T13:45:44.886Z,28.60
2017-08-05T13:48:13.141Z,28.60
2017-08-05T13:50:42.150Z,28.60
2017-08-05T13:53:10.425Z,28.60
2017-08-05T13:55:38.721Z,28.60
2017-08-05T13:58:07.766Z,28.60
2017-08-05T14:00:36.038Z,28.60
2017-08-05T14:03:04.028Z,28.60
2017-08-05T14:05:32.306Z,28.60
2017-08-05T14:08:00.565Z,28.60
2017-08-05T14:10:28.893Z,28.60
2017-08-05T14:12:57.946Z,28.60
2017-08-05T14:15:26.216Z,28.60
2017-08-05T14:17:54.466Z,28.60
2017-08-05T14:20:22.757Z,28.60
2017-08-05T14:22:51.793Z,28.60
2017-08-05T14:25:20.045Z,28.60
2017-08-05T14:27:48.342Z,28.60
2017-08-05T14:30:17.375Z,28.60
2017-08-05T14:32:45.635Z,28.70
2017-08-05T14:35:13.881Z,28.60
2017-08-05T14:37:42.246Z,28.60
2017-08-05T14:40:10.526Z,28.70
2017-08-05T14:42:38.768Z,28.70
2017-08-05T14:45:07.047Z,28.70
2017-08-05T14:47:35.292Z,28.70
2017-08-05T14:50:03.574Z,28.70
2017-08-05T14:52:31.922Z,28.70
2017-08-05T14:55:00.165Z,28.70
2017-08-05T14:57:28.450Z,28.70
2017-08-05T14:59:56.861Z,28.70
2017-08-05T15:02:25.911Z,28.70
2017-08-05T15:04:54.153Z,28.70
2017-08-05T15:07:22.447Z,28.70
2017-08-05T15:09:51.516Z,28.70
2017-08-05T15:12:19.807Z,28.70
2017-08-05T15:14:48.063Z,28.70
2017-08-05T15:17:16.323Z,28.70
2017-08-05T15:19:44.598Z,28.70
2017-08-05T15:22:13.287Z,28.70
2017-08-05T15:24:41.541Z,28.70
2017-08-05T15:27:09.785Z,28.70
2017-08-05T15:29:38.078Z,28.70
2017-08-05T15:32:06.371Z,28.70
2017-08-05T15:34:35.419Z,28.70
2017-08-05T15:37:03.685Z,28.70
2017-08-05T15:39:31.936Z,28.80
2017-08-05T15:42:00.211Z,28.70
2017-08-05T15:44:28.508Z,28.80
2017-08-05T15:46:56.756Z,28.80
2017-08-05T15:49:25.806Z,28.60
2017-08-05T15:51:54.073Z,28.60
2017-08-05T15:54:22.329Z,28.50
2017-08-05T15:56:50.615Z,28.40
2017-08-05T15:59:27.410Z,28.40
2017-08-05T16:01:55.667Z,28.40
2017-08-05T16:04:23.938Z,28.30
2017-08-05T16:06:52.216Z,28.30
2017-08-05T16:09:20.506Z,28.20
2017-08-05T16:11:49.516Z,28.20
2017-08-05T16:14:17.818Z,28.20
2017-08-05T16:16:46.089Z,28.20
2017-08-05T16:19:14.370Z,28.20
2017-08-05T16:21:43.400Z,28.10
2017-08-05T16:24:11.636Z,28.10
2017-08-05T16:26:39.884Z,28.10
2017-08-05T16:29:08.186Z,28.10
2017-08-05T16:31:36.483Z,28.10
2017-08-05T16:34:04.745Z,28.10
2017-08-05T16:36:33.801Z,28.00
2017-08-05T16:39:02.079Z,28.10
2017-08-05T16:41:31.093Z,28.00
2017-08-05T16:43:59.395Z,28.10
2017-08-05T16:46:27.682Z,28.00
2017-08-05T16:48:56.734Z,28.00
2017-08-05T16:51:25.064Z,28.10
2017-08-05T16:53:53.304Z,28.00
2017-08-05T16:56:21.551Z,28.00
2017-08-05T16:58:49.911Z,28.00
2017-08-05T17:01:18.196Z,28.00
2017-08-05T17:03:46.454Z,28.10
2017-08-05T17:06:14.538Z,28.00
2017-08-05T17:08:42.815Z,28.10
2017-08-05T17:11:11.066Z,28.00
2017-08-05T17:13:39.367Z,28.10
2017-08-05T17:16:07.656Z,28.00
2017-08-05T17:18:35.964Z,28.10
2017-08-05T17:21:04.225Z,28.00
2017-08-05T17:23:33.248Z,28.00
2017-08-05T17:26:01.528Z,28.00
2017-08-05T17:28:29.836Z,28.00
2017-08-05T17:30:58.881Z,28.00
2017-08-05T17:33:27.163Z,28.00
2017-08-05T17:35:56.215Z,28.00
2017-08-05T17:38:24.460Z,28.00
2017-08-05T17:40:52.746Z,28.00
2017-08-05T17:43:21.065Z,28.00
2017-08-05T17:45:49.321Z,28.00
2017-08-05T17:48:17.565Z,28.00
2017-08-05T17:50:45.857Z,28.00
2017-08-05T17:53:14.106Z,28.00
2017-08-05T17:55:42.383Z,28.00
2017-08-05T17:58:10.658Z,28.00
2017-08-05T18:00:38.723Z,28.00
2017-08-05T18:03:06.964Z,28.00
2017-08-05T18:05:35.259Z,28.00
2017-08-05T18:08:04.310Z,28.00
2017-08-05T18:10:32.561Z,28.00
2017-08-05T18:13:00.865Z,28.00
2017-08-05T18:15:29.877Z,28.00
2017-08-05T18:17:58.137Z,28.00
2017-08-05T18:20:26.408Z,28.00
2017-08-05T18:22:54.690Z,28.00
2017-08-05T18:25:22.973Z,27.60
2017-08-05T18:27:52.353Z,26.70
2017-08-05T18:30:21.390Z,26.20
2017-08-05T18:32:49.680Z,26.20
2017-08-05T18:35:18.617Z,26.00
2017-08-05T18:37:46.894Z,25.80
2017-08-05T18:40:15.178Z,25.60
2017-08-05T18:42:43.494Z,25.50
2017-08-05T18:45:11.799Z,25.30
2017-08-05T18:47:39.892Z,25.20
2017-08-05T18:50:08.191Z,25.20
2017-08-05T18:52:36.495Z,25.50
2017-08-05T18:55:04.800Z,25.80
2017-08-05T18:57:33.073Z,26.10
2017-08-05T19:00:01.359Z,26.40
2017-08-05T19:02:29.656Z,26.70
2017-08-05T19:04:57.938Z,26.80
2017-08-05T19:07:26.214Z,27.00
2017-08-05T19:09:54.457Z,27.10
2017-08-05T19:12:22.728Z,27.20
2017-08-05T19:14:50.978Z,27.30
2017-08-05T19:17:19.216Z,27.40
2017-08-05T19:19:47.484Z,27.50
2017-08-05T19:22:15.734Z,27.50
2017-08-05T19:24:43.988Z,27.60
2017-08-05T19:27:12.279Z,27.70
2017-08-05T19:29:40.516Z,27.70
2017-08-05T19:32:08.799Z,27.70
2017-08-05T19:34:37.163Z,27.80
2017-08-05T19:37:05.450Z,27.80
2017-08-05T19:39:33.705Z,27.80
2017-08-05T19:42:02.015Z,27.20
2017-08-05T19:44:30.261Z,26.60
2017-08-05T19:46:58.513Z,26.00
2017-08-05T19:49:27.641Z,25.00
2017-08-05T19:51:55.914Z,25.00
2017-08-05T19:54:24.191Z,24.60
2017-08-05T19:56:52.458Z,24.40
2017-08-05T19:59:21.506Z,24.00
2017-08-05T20:01:49.789Z,24.00
2017-08-05T20:04:18.053Z,23.80
2017-08-05T20:06:46.334Z,23.70
2017-08-05T20:09:14.582Z,23.50
2017-08-05T20:11:43.621Z,23.40
2017-08-05T20:14:11.905Z,23.30
2017-08-05T20:16:40.194Z,23.30
2017-08-05T20:19:08.469Z,23.20
2017-08-05T20:21:36.752Z,23.10
2017-08-05T20:24:04.996Z,23.00
2017-08-05T20:26:33.261Z,23.00
2017-08-05T20:29:01.539Z,23.00
2017-08-05T20:31:29.822Z,22.90
2017-08-05T20:36:33.456Z,22.80
2017-08-05T20:39:01.721Z,22.70
2017-08-05T20:41:30.012Z,22.70
2017-08-05T20:43:58.268Z,22.60
2017-08-05T20:46:26.573Z,22.60
2017-08-05T20:48:54.824Z,22.60
2017-08-05T20:51:23.685Z,22.50
2017-08-05T20:53:51.952Z,22.50
2017-08-05T20:56:21.015Z,22.50
2017-08-05T20:58:49.304Z,22.50
2017-08-05T21:01:17.606Z,22.50
2017-08-05T21:03:45.894Z,22.50
2017-08-05T21:06:14.146Z,22.50
2017-08-05T21:08:42.442Z,22.40
2017-08-05T21:11:11.507Z,22.40
2017-08-05T21:13:40.526Z,22.30
2017-08-05T21:16:08.847Z,22.30
2017-08-05T21:18:37.899Z,22.30
2017-08-05T21:21:06.194Z,22.20
2017-08-05T21:23:35.322Z,22.20
2017-08-05T21:26:03.598Z,22.20
2017-08-05T21:28:31.886Z,22.20
2017-08-05T21:31:00.922Z,22.10
2017-08-05T21:33:29.234Z,22.10
2017-08-05T21:35:58.237Z,22.00
2017-08-05T21:38:26.508Z,22.00
2017-08-05T21:40:54.786Z,22.00
2017-08-05T21:43:23.067Z,22.00
2017-08-05T21:45:51.345Z,22.00
2017-08-05T21:48:20.367Z,22.00
2017-08-05T21:50:48.612Z,22.00
2017-08-05T21:53:16.872Z,21.90
2017-08-05T21:55:45.127Z,21.80
2017-08-05T21:58:13.373Z,21.70
2017-08-05T22:00:41.668Z,21.70
2017-08-05T22:03:09.995Z,21.60
2017-08-05T22:05:38.258Z,21.60
2017-08-05T22:08:07.039Z,21.50
2017-08-05T22:10:35.338Z,21.60
2017-08-05T22:13:03.585Z,21.60
2017-08-05T22:15:31.883Z,21.50
2017-08-05T22:18:00.946Z,21.60
2017-08-05T22:20:29.227Z,21.60
2017-08-05T22:22:58.315Z,21.60
2017-08-05T22:25:26.573Z,21.60
2017-08-05T22:27:55.618Z,21.70
2017-08-05T22:30:23.919Z,21.60
2017-08-05T22:32:52.215Z,21.70
2017-08-05T22:35:20.461Z,21.60
2017-08-05T22:37:48.721Z,21.60
2017-08-05T22:40:16.991Z,21.60
2017-08-05T22:42:45.266Z,21.60
2017-08-05T22:45:13.537Z,21.60
2017-08-05T22:47:42.703Z,21.50
2017-08-05T22:50:10.953Z,21.40
2017-08-05T22:52:39.256Z,21.40
2017-08-05T22:55:08.277Z,21.20
2017-08-05T22:57:36.525Z,21.20
2017-08-05T23:00:04.537Z,21.20
2017-08-05T23:02:32.865Z,21.10
2017-08-05T23:05:01.108Z,21.10
2017-08-05T23:07:29.430Z,21.10
2017-08-05T23:09:58.474Z,21.10
2017-08-05T23:12:26.718Z,21.10
2017-08-05T23:14:55.005Z,21.10
2017-08-05T23:17:23.291Z,21.10
2017-08-05T23:19:52.342Z,21.10
2017-08-05T23:22:20.417Z,21.00
2017-08-05T23:24:49.424Z,21.10
2017-08-05T23:27:17.673Z,21.10
2017-08-05T23:29:45.973Z,21.10
2017-08-05T23:32:14.267Z,21.10
2017-08-05T23:34:42.517Z,21.10
2017-08-05T23:37:10.810Z,21.00
2017-08-05T23:39:39.060Z,21.00
2017-08-05T23:42:08.105Z,21.10
2017-08-05T23:44:36.399Z,21.00
2017-08-05T23:47:05.419Z,21.00
2017-08-05T23:49:33.698Z,21.00
2017-08-05T23:52:02.006Z,21.00
2017-08-05T23:54:30.282Z,21.10
2017-08-05T23:56:58.567Z,21.10
2017-08-05T23:59:26.840Z,21.10
